createdAt,value
2022-09-13T00:00:40.493Z,11.6
2022-09-13T00:05:42.550Z,11.4
2022-09-13T00:10:44.963Z,11.3
2022-09-13T00:15:47.031Z,11.3
2022-09-13T00:20:49.466Z,11.2
2022-09-13T00:25:51.695Z,11.1
2022-09-13T00:30:53.639Z,11.1
2022-09-13T00:40:56.566Z,10.8
2022-09-13T00:45:58.736Z,10.8
2022-09-13T00:51:00.835Z,10.6
2022-09-13T00:56:02.747Z,10.5
2022-09-13T01:01:05.220Z,10.5
2022-09-13T01:11:07.754Z,10.5
2022-09-13T01:16:09.842Z,10.3
2022-09-13T01:21:12.301Z,10
2022-09-13T01:26:14.275Z,10
2022-09-13T01:31:16.400Z,10
2022-09-13T01:36:18.635Z,10
2022-09-13T01:41:20.654Z,10.1
2022-09-13T01:46:23.169Z,10
2022-09-13T01:51:26.177Z,10
2022-09-13T01:56:28.483Z,9.9
2022-09-13T02:01:30.776Z,9.9
2022-09-13T02:06:32.913Z,9.8
2022-09-13T02:11:34.967Z,9.6
2022-09-13T02:16:37.016Z,9.5
2022-09-13T02:21:39.145Z,9.5
2022-09-13T02:26:41.162Z,9.5
2022-09-13T02:31:43.572Z,9.5
2022-09-13T02:36:46.299Z,9.5
2022-09-13T02:41:48.286Z,9.4
2022-09-13T02:46:50.222Z,9.4
2022-09-13T02:51:52.116Z,9.3
2022-09-13T02:56:54.082Z,9.3
2022-09-13T03:01:56.205Z,9.2
2022-09-13T03:06:58.108Z,9.1
2022-09-13T03:12:00.369Z,9.2
2022-09-13T03:17:02.549Z,9.3
2022-09-13T03:22:04.671Z,9.3
2022-09-13T03:27:06.550Z,9.3
2022-09-13T03:32:08.610Z,9.3
2022-09-13T03:37:10.918Z,9.3
2022-09-13T03:42:12.966Z,9.3
2022-09-13T03:47:14.856Z,9.3
2022-09-13T03:52:17.022Z,9.3
2022-09-13T03:57:19.125Z,9
2022-09-13T04:02:21.278Z,8.9
2022-09-13T04:07:23.450Z,9
2022-09-13T04:12:26.297Z,9.3
2022-09-13T04:17:28.268Z,9.3
2022-09-13T04:22:30.324Z,9.3
2022-09-13T04:27:32.885Z,9.4
2022-09-13T04:32:34.905Z,9.3
2022-09-13T04:37:36.925Z,9.5
2022-09-13T04:42:38.924Z,9.8
2022-09-13T04:47:40.789Z,10.1
2022-09-13T04:52:42.733Z,10.6
2022-09-13T04:57:44.669Z,11
2022-09-13T05:02:46.644Z,11.5
2022-09-13T05:07:48.817Z,12
2022-09-13T05:12:50.942Z,12.6
2022-09-13T05:17:52.980Z,13.1
2022-09-13T05:22:55.110Z,13.6
2022-09-13T05:27:57.138Z,14
2022-09-13T05:32:59.028Z,14.6
2022-09-13T05:38:01.091Z,15.1
2022-09-13T05:43:03.089Z,15.4
2022-09-13T05:48:05.488Z,15.8
2022-09-13T05:53:07.484Z,16.4
2022-09-13T06:03:09.940Z,15.6
2022-09-13T06:08:12.157Z,16.9
2022-09-13T06:13:14.593Z,17.9
2022-09-13T06:18:16.785Z,18.4
2022-09-13T06:23:18.858Z,17.7
2022-09-13T06:28:23.107Z,17.6
2022-09-13T06:33:25.209Z,17.6
2022-09-13T06:38:27.388Z,18.8
2022-09-13T06:43:29.473Z,19.5
2022-09-13T06:53:32.283Z,21.1
2022-09-13T06:58:34.466Z,20.1
2022-09-13T07:03:36.473Z,20.8
2022-09-13T07:08:38.873Z,21
2022-09-13T07:13:41.247Z,20.9
2022-09-13T07:18:43.398Z,22.7
2022-09-13T07:23:45.519Z,22.1
2022-09-13T07:28:48.559Z,20.5
2022-09-13T07:33:51.053Z,20.4
2022-09-13T07:38:53.674Z,21.2
2022-09-13T07:43:55.768Z,21.1
2022-09-13T07:48:58.360Z,21.5
2022-09-13T07:54:00.532Z,21.5
2022-09-13T07:59:02.740Z,21.4
2022-09-13T08:04:04.849Z,21.7
2022-09-13T08:09:10.767Z,21
2022-09-13T08:14:13.132Z,20.9
2022-09-13T08:19:15.512Z,21.1
2022-09-13T08:24:27.648Z,22.9
2022-09-13T08:29:20.313Z,23.5
2022-09-13T08:34:22.379Z,23.4
2022-09-13T08:39:24.584Z,23.2
2022-09-13T08:44:26.728Z,23.2
2022-09-13T08:49:28.984Z,24.2
2022-09-13T08:54:31.128Z,26.2
2022-09-13T08:59:33.319Z,26.8
2022-09-13T09:04:35.565Z,25.7
2022-09-13T09:09:37.795Z,28.1
2022-09-13T09:14:40.144Z,29.6
2022-09-13T09:19:42.185Z,28.1
2022-09-13T09:24:44.417Z,28.6
2022-09-13T09:29:46.473Z,27.3
2022-09-13T09:34:48.437Z,29
2022-09-13T09:39:50.572Z,29.5
2022-09-13T09:44:52.593Z,29.9
2022-09-13T09:49:54.624Z,31
2022-09-13T09:54:56.574Z,33.7
2022-09-13T09:59:58.531Z,30.6
2022-09-13T10:05:00.480Z,30.9
2022-09-13T10:10:02.467Z,33.2
2022-09-13T10:15:10.251Z,34.4
2022-09-13T10:20:12.221Z,34.3
2022-09-13T10:30:15.996Z,33.7
2022-09-13T10:35:18.006Z,33.7
2022-09-13T10:40:20.081Z,34.6
2022-09-13T10:45:22.214Z,35.8
2022-09-13T10:50:24.199Z,33.9
2022-09-13T10:55:26.427Z,33.6
2022-09-13T11:00:28.487Z,32
2022-09-13T11:05:30.486Z,31.2
2022-09-13T11:10:32.506Z,32.1
2022-09-13T11:15:34.514Z,30.6
2022-09-13T11:20:36.653Z,30.4
2022-09-13T11:25:38.645Z,29.6
2022-09-13T11:30:40.831Z,30.3
2022-09-13T11:35:42.859Z,30.4
2022-09-13T11:40:45.599Z,30.7
2022-09-13T11:45:47.727Z,30.7
2022-09-13T11:50:49.825Z,31.4
2022-09-13T11:55:51.816Z,31
2022-09-13T12:00:53.877Z,30.6
2022-09-13T12:05:55.908Z,30.6
2022-09-13T12:10:58.385Z,27.5
2022-09-13T12:16:00.515Z,27.4
2022-09-13T12:21:02.484Z,27.2
2022-09-13T12:26:04.595Z,27.4
2022-09-13T12:31:06.733Z,27.1
2022-09-13T12:36:08.785Z,28.7
2022-09-13T12:41:11.270Z,28.3
2022-09-13T12:46:13.514Z,28.2
2022-09-13T12:51:15.676Z,27.4
2022-09-13T12:56:18.500Z,27
2022-09-13T13:01:21.117Z,26.4
2022-09-13T13:06:23.710Z,26.3
2022-09-13T13:11:26.679Z,26
2022-09-13T13:16:31.780Z,25.4
2022-09-13T13:21:34.942Z,25.5
2022-09-13T13:26:36.919Z,25.4
2022-09-13T13:31:39.086Z,24.8
2022-09-13T13:36:41.411Z,25.1
2022-09-13T13:41:43.605Z,25.1
2022-09-13T13:46:45.827Z,25.6
2022-09-13T13:51:48.313Z,25.4
2022-09-13T13:56:50.438Z,25.4
2022-09-13T14:01:52.515Z,25.5
2022-09-13T14:06:54.661Z,25.8
2022-09-13T14:11:56.802Z,25.6
2022-09-13T14:16:58.984Z,24.9
2022-09-13T14:22:01.309Z,25
2022-09-13T14:27:10.727Z,24.1
2022-09-13T14:32:12.891Z,24.1
2022-09-13T14:37:14.948Z,23.7
2022-09-13T14:42:17.034Z,23.8
2022-09-13T14:47:19.146Z,23.8
2022-09-13T14:52:21.236Z,23.4
2022-09-13T14:57:23.357Z,22.9
2022-09-13T15:02:25.334Z,22.9
2022-09-13T15:07:27.477Z,23.1
2022-09-13T15:17:30.100Z,23.2
2022-09-13T15:22:33.432Z,23
2022-09-13T15:27:35.534Z,22.8
2022-09-13T15:32:37.514Z,22.8
2022-09-13T15:37:41.226Z,22.3
2022-09-13T15:42:43.416Z,22.3
2022-09-13T15:47:45.475Z,22.3
2022-09-13T15:52:47.574Z,22.2
2022-09-13T15:57:49.658Z,22
2022-09-13T16:02:51.635Z,22
2022-09-13T16:07:53.674Z,21.9
2022-09-13T16:12:55.690Z,21.8
2022-09-13T16:17:58.132Z,21.7
2022-09-13T16:23:00.203Z,21.6
2022-09-13T16:28:02.473Z,21.5
2022-09-13T16:33:05.112Z,21.3
2022-09-13T16:38:07.183Z,21.2
2022-09-13T16:43:09.107Z,21.1
2022-09-13T16:48:11.191Z,20.9
2022-09-13T16:53:13.566Z,20.7
2022-09-13T16:58:15.607Z,20.6
2022-09-13T17:03:17.925Z,20.5
2022-09-13T17:08:20.130Z,20.4
2022-09-13T17:13:22.192Z,20.3
2022-09-13T17:18:24.593Z,20.1
2022-09-13T17:23:27.104Z,19.9
2022-09-13T17:28:29.117Z,19.9
2022-09-13T17:33:31.223Z,19.9
2022-09-13T17:38:33.379Z,19.8
2022-09-13T17:43:35.482Z,19.7
2022-09-13T17:48:37.524Z,19.6
2022-09-13T17:53:39.724Z,19.5
2022-09-13T17:58:44.607Z,19.3
2022-09-13T18:03:46.923Z,19.2
2022-09-13T18:08:49.211Z,19.1
2022-09-13T18:13:51.316Z,19
2022-09-13T18:18:54.470Z,18.8
2022-09-13T18:23:57.563Z,18.7
2022-09-13T18:28:59.825Z,18.7
2022-09-13T18:34:01.849Z,18.7
2022-09-13T18:39:03.829Z,18.6
2022-09-13T18:44:06.653Z,18.4
2022-09-13T18:49:11.546Z,18.4
2022-09-13T18:54:13.652Z,18.3
2022-09-13T18:59:16.359Z,18.2
2022-09-13T19:04:18.414Z,18.2
2022-09-13T19:09:20.694Z,18
2022-09-13T19:14:24.015Z,17.8
2022-09-13T19:19:26.597Z,17.7
2022-09-13T19:24:29.227Z,17.7
2022-09-13T19:29:31.430Z,17.7
2022-09-13T19:34:33.488Z,17.9
2022-09-13T19:39:35.591Z,18
2022-09-13T19:44:37.627Z,18
2022-09-13T19:49:39.601Z,18
2022-09-13T19:54:41.561Z,18
2022-09-13T19:59:43.563Z,18
2022-09-13T20:04:45.724Z,18
2022-09-13T20:09:47.902Z,18
2022-09-13T20:14:50.356Z,17.9
2022-09-13T20:19:52.725Z,17.8
2022-09-13T20:24:54.719Z,17.9
2022-09-13T20:29:56.811Z,17.8
2022-09-13T20:34:58.834Z,17.8
2022-09-13T20:40:01.290Z,17.7
2022-09-13T20:45:04.907Z,17.7
2022-09-13T20:50:06.874Z,17.6
2022-09-13T20:55:09.603Z,17.7
2022-09-13T21:00:12.809Z,17.6
2022-09-13T21:05:14.758Z,17.5
2022-09-13T21:10:16.759Z,17.5
2022-09-13T21:15:18.690Z,17.5
2022-09-13T21:20:21.171Z,17.5
2022-09-13T21:25:25.893Z,17.5
2022-09-13T21:30:28.356Z,17.6
2022-09-13T21:35:30.656Z,17.6
2022-09-13T21:40:33.299Z,17.6
2022-09-13T21:45:35.740Z,17.6
2022-09-13T21:50:37.767Z,17.7
2022-09-13T21:55:41.045Z,17.7
2022-09-13T22:00:43.177Z,17.7
2022-09-13T22:05:45.447Z,17.7
2022-09-13T22:10:47.633Z,17.8
2022-09-13T22:15:49.536Z,17.8
2022-09-13T22:20:51.596Z,17.7
2022-09-13T22:25:53.496Z,17.7
2022-09-13T22:35:56.736Z,17.6
2022-09-13T22:40:58.802Z,17.7
2022-09-13T22:46:01.340Z,17.6
2022-09-13T22:51:03.508Z,17.6
2022-09-13T22:56:05.578Z,17.6
2022-09-13T23:01:08.016Z,17.6
2022-09-13T23:06:10.032Z,17.6
2022-09-13T23:11:11.941Z,17.5
2022-09-13T23:16:14.473Z,17.4
2022-09-13T23:26:17.092Z,17.4
2022-09-13T23:31:19.675Z,17.4
2022-09-13T23:36:21.963Z,17.3
2022-09-13T23:41:23.951Z,17.4
2022-09-13T23:46:26.321Z,17.3
2022-09-13T23:51:28.303Z,17.2
2022-09-13T23:56:30.363Z,17.3
